sensor_id;sensor_type;location;lat;lon;timestamp;P1;durP1;ratioP1;P2;durP2;ratioP2
6173;SDS011;3120;48.796;9.796;2023-07-20T00:00:46;10.55;;;1.45;;
6173;SDS011;3120;48.796;9.796;2023-07-20T00:03:12;1.70;;;0.90;;
6173;SDS011;3120;48.796;9.796;2023-07-20T00:05:44;2.60;;;0.95;;
6173;SDS011;3120;48.796;9.796;2023-07-20T00:08:10;4.47;;;1.15;;
6173;SDS011;3120;48.796;9.796;2023-07-20T00:10:35;4.80;;;0.90;;
6173;SDS011;3120;48.796;9.796;2023-07-20T00:13:01;9.27;;;1.20;;
6173;SDS011;3120;48.796;9.796;2023-07-20T00:15:27;2.25;;;1.05;;
6173;SDS011;3120;48.796;9.796;2023-07-20T00:17:52;6.53;;;1.00;;
6173;SDS011;3120;48.796;9.796;2023-07-20T00:20:18;7.28;;;1.52;;
6173;SDS011;3120;48.796;9.796;2023-07-20T00:22:43;4.90;;;1.10;;
6173;SDS011;3120;48.796;9.796;2023-07-20T00:25:09;5.45;;;0.93;;
6173;SDS011;3120;48.796;9.796;2023-07-20T00:27:36;6.07;;;1.33;;
6173;SDS011;3120;48.796;9.796;2023-07-20T00:30:03;2.47;;;0.95;;
6173;SDS011;3120;48.796;9.796;2023-07-20T00:32:29;3.53;;;1.40;;
6173;SDS011;3120;48.796;9.796;2023-07-20T00:34:54;3.83;;;1.17;;
6173;SDS011;3120;48.796;9.796;2023-07-20T00:37:20;5.88;;;1.33;;
6173;SDS011;3120;48.796;9.796;2023-07-20T00:39:46;3.90;;;1.20;;
6173;SDS011;3120;48.796;9.796;2023-07-20T00:42:12;4.72;;;1.42;;
6173;SDS011;3120;48.796;9.796;2023-07-20T00:44:37;4.18;;;1.20;;
6173;SDS011;3120;48.796;9.796;2023-07-20T00:47:03;4.03;;;1.70;;
6173;SDS011;3120;48.796;9.796;2023-07-20T00:49:30;4.38;;;0.90;;
6173;SDS011;3120;48.796;9.796;2023-07-20T00:51:55;1.52;;;1.17;;
6173;SDS011;3120;48.796;9.796;2023-07-20T00:54:21;6.43;;;1.25;;
6173;SDS011;3120;48.796;9.796;2023-07-20T00:56:47;7.22;;;1.40;;
6173;SDS011;3120;48.796;9.796;2023-07-20T00:59:12;9.63;;;1.40;;
6173;SDS011;3120;48.796;9.796;2023-07-20T01:01:38;5.90;;;1.40;;
6173;SDS011;3120;48.796;9.796;2023-07-20T01:04:04;2.83;;;1.50;;
6173;SDS011;3120;48.796;9.796;2023-07-20T01:07:13;3.75;;;1.52;;
6173;SDS011;3120;48.796;9.796;2023-07-20T01:14:27;4.72;;;1.50;;
6173;SDS011;3120;48.796;9.796;2023-07-20T01:16:52;6.85;;;1.60;;
6173;SDS011;3120;48.796;9.796;2023-07-20T01:19:18;2.03;;;1.10;;
6173;SDS011;3120;48.796;9.796;2023-07-20T01:30:28;3.75;;;1.50;;
6173;SDS011;3120;48.796;9.796;2023-07-20T01:33:12;2.83;;;1.50;;
6173;SDS011;3120;48.796;9.796;2023-07-20T01:35:40;6.38;;;1.40;;
6173;SDS011;3120;48.796;9.796;2023-07-20T01:38:09;3.65;;;1.23;;
6173;SDS011;3120;48.796;9.796;2023-07-20T01:40:36;2.85;;;1.30;;
6173;SDS011;3120;48.796;9.796;2023-07-20T01:43:02;2.25;;;1.40;;
6173;SDS011;3120;48.796;9.796;2023-07-20T01:45:28;8.95;;;1.50;;
6173;SDS011;3120;48.796;9.796;2023-07-20T01:47:53;5.40;;;1.30;;
6173;SDS011;3120;48.796;9.796;2023-07-20T01:50:19;3.28;;;1.48;;
6173;SDS011;3120;48.796;9.796;2023-07-20T01:52:45;2.85;;;1.25;;
6173;SDS011;3120;48.796;9.796;2023-07-20T01:55:10;2.10;;;1.17;;
6173;SDS011;3120;48.796;9.796;2023-07-20T01:57:36;4.70;;;1.48;;
6173;SDS011;3120;48.796;9.796;2023-07-20T02:00:02;2.28;;;1.27;;
6173;SDS011;3120;48.796;9.796;2023-07-20T02:02:28;2.20;;;1.20;;
6173;SDS011;3120;48.796;9.796;2023-07-20T02:04:53;2.92;;;1.75;;
6173;SDS011;3120;48.796;9.796;2023-07-20T02:07:19;2.60;;;1.40;;
6173;SDS011;3120;48.796;9.796;2023-07-20T02:09:44;5.97;;;1.60;;
6173;SDS011;3120;48.796;9.796;2023-07-20T02:12:10;7.03;;;1.55;;
6173;SDS011;3120;48.796;9.796;2023-07-20T02:14:36;3.83;;;1.77;;
6173;SDS011;3120;48.796;9.796;2023-07-20T02:17:01;4.40;;;1.52;;
6173;SDS011;3120;48.796;9.796;2023-07-20T02:19:28;4.95;;;1.60;;
6173;SDS011;3120;48.796;9.796;2023-07-20T02:21:55;3.05;;;1.27;;
6173;SDS011;3120;48.796;9.796;2023-07-20T02:24:20;5.65;;;1.75;;
6173;SDS011;3120;48.796;9.796;2023-07-20T02:26:46;7.65;;;1.38;;
6173;SDS011;3120;48.796;9.796;2023-07-20T02:29:11;2.38;;;1.35;;
6173;SDS011;3120;48.796;9.796;2023-07-20T02:31:37;10.95;;;1.40;;
6173;SDS011;3120;48.796;9.796;2023-07-20T02:34:04;3.20;;;1.50;;
6173;SDS011;3120;48.796;9.796;2023-07-20T02:36:30;6.53;;;1.77;;
6173;SDS011;3120;48.796;9.796;2023-07-20T02:38:57;3.00;;;1.40;;
6173;SDS011;3120;48.796;9.796;2023-07-20T02:41:24;3.80;;;1.58;;
6173;SDS011;3120;48.796;9.796;2023-07-20T02:43:49;3.25;;;1.42;;
6173;SDS011;3120;48.796;9.796;2023-07-20T02:46:15;4.30;;;1.60;;
6173;SDS011;3120;48.796;9.796;2023-07-20T02:48:40;3.65;;;1.35;;
6173;SDS011;3120;48.796;9.796;2023-07-20T02:51:06;1.85;;;1.38;;
6173;SDS011;3120;48.796;9.796;2023-07-20T02:53:32;6.80;;;1.70;;
6173;SDS011;3120;48.796;9.796;2023-07-20T02:55:58;3.80;;;1.67;;
6173;SDS011;3120;48.796;9.796;2023-07-20T02:58:23;4.40;;;1.70;;
6173;SDS011;3120;48.796;9.796;2023-07-20T03:00:49;3.08;;;1.80;;
6173;SDS011;3120;48.796;9.796;2023-07-20T03:03:15;5.05;;;1.67;;
6173;SDS011;3120;48.796;9.796;2023-07-20T03:05:41;5.47;;;1.60;;
6173;SDS011;3120;48.796;9.796;2023-07-20T03:08:06;8.88;;;1.80;;
6173;SDS011;3120;48.796;9.796;2023-07-20T03:10:32;3.35;;;1.42;;
6173;SDS011;3120;48.796;9.796;2023-07-20T03:13:03;9.02;;;2.00;;
6173;SDS011;3120;48.796;9.796;2023-07-20T03:15:28;2.63;;;1.20;;
6173;SDS011;3120;48.796;9.796;2023-07-20T03:17:54;9.00;;;1.80;;
6173;SDS011;3120;48.796;9.796;2023-07-20T03:20:19;1.73;;;1.35;;
6173;SDS011;3120;48.796;9.796;2023-07-20T03:22:45;6.75;;;1.70;;
6173;SDS011;3120;48.796;9.796;2023-07-20T03:25:11;2.47;;;1.30;;
6173;SDS011;3120;48.796;9.796;2023-07-20T03:27:37;4.30;;;1.58;;
6173;SDS011;3120;48.796;9.796;2023-07-20T03:30:02;5.28;;;1.77;;
6173;SDS011;3120;48.796;9.796;2023-07-20T03:32:28;5.53;;;1.77;;
6173;SDS011;3120;48.796;9.796;2023-07-20T03:34:54;3.90;;;1.60;;
6173;SDS011;3120;48.796;9.796;2023-07-20T03:37:19;8.80;;;1.88;;
6173;SDS011;3120;48.796;9.796;2023-07-20T03:39:45;3.85;;;2.10;;
6173;SDS011;3120;48.796;9.796;2023-07-20T03:42:10;7.22;;;1.80;;
6173;SDS011;3120;48.796;9.796;2023-07-20T03:44:36;6.68;;;2.10;;
6173;SDS011;3120;48.796;9.796;2023-07-20T03:47:02;2.95;;;1.70;;
6173;SDS011;3120;48.796;9.796;2023-07-20T03:49:29;3.83;;;1.80;;
6173;SDS011;3120;48.796;9.796;2023-07-20T03:51:55;6.93;;;1.85;;
6173;SDS011;3120;48.796;9.796;2023-07-20T03:54:20;4.80;;;1.60;;
6173;SDS011;3120;48.796;9.796;2023-07-20T03:56:46;5.40;;;1.92;;
6173;SDS011;3120;48.796;9.796;2023-07-20T03:59:11;4.68;;;1.70;;
6173;SDS011;3120;48.796;9.796;2023-07-20T04:01:37;3.30;;;1.77;;
6173;SDS011;3120;48.796;9.796;2023-07-20T04:04:06;3.50;;;1.92;;
6173;SDS011;3120;48.796;9.796;2023-07-20T04:06:33;4.40;;;1.90;;
6173;SDS011;3120;48.796;9.796;2023-07-20T04:08:59;3.72;;;2.13;;
6173;SDS011;3120;48.796;9.796;2023-07-20T04:11:24;5.75;;;1.88;;
6173;SDS011;3120;48.796;9.796;2023-07-20T04:13:50;7.10;;;1.88;;
6173;SDS011;3120;48.796;9.796;2023-07-20T04:16:15;9.63;;;1.63;;
6173;SDS011;3120;48.796;9.796;2023-07-20T04:18:41;3.08;;;1.60;;
6173;SDS011;3120;48.796;9.796;2023-07-20T04:21:10;6.93;;;2.13;;
6173;SDS011;3120;48.796;9.796;2023-07-20T04:23:35;5.03;;;2.28;;
6173;SDS011;3120;48.796;9.796;2023-07-20T04:26:02;11.65;;;2.28;;
6173;SDS011;3120;48.796;9.796;2023-07-20T04:28:27;5.50;;;2.20;;
6173;SDS011;3120;48.796;9.796;2023-07-20T04:30:53;9.35;;;2.03;;
6173;SDS011;3120;48.796;9.796;2023-07-20T04:33:18;3.08;;;2.13;;
6173;SDS011;3120;48.796;9.796;2023-07-20T04:35:51;3.83;;;2.00;;
6173;SDS011;3120;48.796;9.796;2023-07-20T04:38:18;4.85;;;2.25;;
6173;SDS011;3120;48.796;9.796;2023-07-20T04:40:48;10.05;;;2.33;;
6173;SDS011;3120;48.796;9.796;2023-07-20T04:43:14;3.72;;;2.35;;
6173;SDS011;3120;48.796;9.796;2023-07-20T04:45:40;5.18;;;2.30;;
6173;SDS011;3120;48.796;9.796;2023-07-20T04:48:08;5.53;;;2.45;;
6173;SDS011;3120;48.796;9.796;2023-07-20T04:50:36;6.38;;;2.22;;
6173;SDS011;3120;48.796;9.796;2023-07-20T04:53:02;7.30;;;2.10;;
6173;SDS011;3120;48.796;9.796;2023-07-20T04:55:28;7.35;;;2.05;;
6173;SDS011;3120;48.796;9.796;2023-07-20T04:57:54;5.60;;;1.63;;
6173;SDS011;3120;48.796;9.796;2023-07-20T05:00:19;4.95;;;1.90;;
6173;SDS011;3120;48.796;9.796;2023-07-20T05:02:46;4.05;;;1.80;;
6173;SDS011;3120;48.796;9.796;2023-07-20T05:05:13;3.97;;;1.80;;
6173;SDS011;3120;48.796;9.796;2023-07-20T05:07:39;9.15;;;1.70;;
6173;SDS011;3120;48.796;9.796;2023-07-20T05:10:05;3.80;;;1.50;;
6173;SDS011;3120;48.796;9.796;2023-07-20T05:12:31;14.95;;;1.75;;
6173;SDS011;3120;48.796;9.796;2023-07-20T05:14:57;6.43;;;1.80;;
6173;SDS011;3120;48.796;9.796;2023-07-20T05:17:22;8.00;;;2.00;;
6173;SDS011;3120;48.796;9.796;2023-07-20T05:19:49;2.03;;;1.58;;
6173;SDS011;3120;48.796;9.796;2023-07-20T05:22:15;8.15;;;1.88;;
6173;SDS011;3120;48.796;9.796;2023-07-20T05:24:41;6.45;;;1.85;;
6173;SDS011;3120;48.796;9.796;2023-07-20T05:27:10;9.70;;;1.65;;
6173;SDS011;3120;48.796;9.796;2023-07-20T05:29:35;7.03;;;1.85;;
6173;SDS011;3120;48.796;9.796;2023-07-20T05:32:03;7.97;;;1.50;;
6173;SDS011;3120;48.796;9.796;2023-07-20T05:34:29;10.32;;;1.77;;
6173;SDS011;3120;48.796;9.796;2023-07-20T05:37:20;5.30;;;1.70;;
6173;SDS011;3120;48.796;9.796;2023-07-20T05:40:06;4.43;;;1.38;;
6173;SDS011;3120;48.796;9.796;2023-07-20T05:43:27;4.85;;;1.83;;
6173;SDS011;3120;48.796;9.796;2023-07-20T05:46:21;9.32;;;1.50;;
6173;SDS011;3120;48.796;9.796;2023-07-20T05:49:03;8.23;;;1.50;;
6173;SDS011;3120;48.796;9.796;2023-07-20T05:51:43;8.18;;;1.58;;
6173;SDS011;3120;48.796;9.796;2023-07-20T05:54:20;8.65;;;1.85;;
6173;SDS011;3120;48.796;9.796;2023-07-20T05:56:50;7.07;;;1.65;;
6173;SDS011;3120;48.796;9.796;2023-07-20T05:59:16;2.90;;;1.77;;
6173;SDS011;3120;48.796;9.796;2023-07-20T06:04:51;3.47;;;1.58;;
6173;SDS011;3120;48.796;9.796;2023-07-20T06:07:36;4.25;;;1.35;;
6173;SDS011;3120;48.796;9.796;2023-07-20T06:35:46;4.95;;;1.30;;
6173;SDS011;3120;48.796;9.796;2023-07-20T07:27:25;8.35;;;1.45;;
6173;SDS011;3120;48.796;9.796;2023-07-20T07:29:54;4.50;;;1.30;;
6173;SDS011;3120;48.796;9.796;2023-07-20T07:32:20;5.82;;;1.30;;
6173;SDS011;3120;48.796;9.796;2023-07-20T07:35:06;4.95;;;1.50;;
6173;SDS011;3120;48.796;9.796;2023-07-20T12:56:31;1.08;;;0.50;;
6173;SDS011;3120;48.796;9.796;2023-07-20T12:58:58;1.38;;;0.50;;
6173;SDS011;3120;48.796;9.796;2023-07-20T13:01:27;4.13;;;0.80;;
6173;SDS011;3120;48.796;9.796;2023-07-20T16:54:25;5.97;;;0.65;;
6173;SDS011;3120;48.796;9.796;2023-07-20T16:56:51;4.32;;;0.70;;
6173;SDS011;3120;48.796;9.796;2023-07-20T16:59:16;4.95;;;0.90;;
6173;SDS011;3120;48.796;9.796;2023-07-20T17:01:43;3.78;;;0.70;;
6173;SDS011;3120;48.796;9.796;2023-07-20T17:04:09;3.20;;;0.90;;
6173;SDS011;3120;48.796;9.796;2023-07-20T17:06:35;4.38;;;0.73;;
6173;SDS011;3120;48.796;9.796;2023-07-20T17:09:01;3.42;;;0.60;;
6173;SDS011;3120;48.796;9.796;2023-07-20T17:11:26;5.75;;;0.80;;
6173;SDS011;3120;48.796;9.796;2023-07-20T17:13:52;2.95;;;0.77;;
6173;SDS011;3120;48.796;9.796;2023-07-20T17:16:18;3.42;;;0.60;;
6173;SDS011;3120;48.796;9.796;2023-07-20T17:18:47;2.33;;;0.70;;
6173;SDS011;3120;48.796;9.796;2023-07-20T17:23:45;2.30;;;0.90;;
6173;SDS011;3120;48.796;9.796;2023-07-20T17:26:19;1.90;;;1.05;;
6173;SDS011;3120;48.796;9.796;2023-07-20T17:28:55;6.78;;;1.00;;
6173;SDS011;3120;48.796;9.796;2023-07-20T17:31:22;5.43;;;0.60;;
6173;SDS011;3120;48.796;9.796;2023-07-20T17:33:53;4.95;;;0.63;;
6173;SDS011;3120;48.796;9.796;2023-07-20T17:36:18;5.00;;;0.93;;
6173;SDS011;3120;48.796;9.796;2023-07-20T17:38:46;3.97;;;0.90;;
6173;SDS011;3120;48.796;9.796;2023-07-20T17:41:12;2.15;;;0.90;;
6173;SDS011;3120;48.796;9.796;2023-07-20T17:43:38;3.08;;;0.70;;
6173;SDS011;3120;48.796;9.796;2023-07-20T17:46:03;1.65;;;0.77;;
6173;SDS011;3120;48.796;9.796;2023-07-20T17:48:29;4.15;;;0.95;;
6173;SDS011;3120;48.796;9.796;2023-07-20T17:50:54;2.08;;;0.90;;
6173;SDS011;3120;48.796;9.796;2023-07-20T17:53:20;5.65;;;1.13;;
6173;SDS011;3120;48.796;9.796;2023-07-20T17:55:46;3.90;;;0.77;;
6173;SDS011;3120;48.796;9.796;2023-07-20T17:58:12;2.05;;;0.90;;
6173;SDS011;3120;48.796;9.796;2023-07-20T18:00:37;1.77;;;0.82;;
6173;SDS011;3120;48.796;9.796;2023-07-20T18:03:03;6.47;;;2.30;;
6173;SDS011;3120;48.796;9.796;2023-07-20T18:05:38;1.90;;;0.90;;
6173;SDS011;3120;48.796;9.796;2023-07-20T18:08:03;6.30;;;1.00;;
6173;SDS011;3120;48.796;9.796;2023-07-20T18:10:29;3.40;;;0.80;;
6173;SDS011;3120;48.796;9.796;2023-07-20T18:12:55;2.20;;;1.20;;
6173;SDS011;3120;48.796;9.796;2023-07-20T18:15:20;1.10;;;0.73;;
6173;SDS011;3120;48.796;9.796;2023-07-20T18:17:47;6.40;;;0.80;;
6173;SDS011;3120;48.796;9.796;2023-07-20T18:20:25;2.65;;;0.90;;
6173;SDS011;3120;48.796;9.796;2023-07-20T18:22:50;4.65;;;1.33;;
6173;SDS011;3120;48.796;9.796;2023-07-20T18:25:17;1.85;;;0.90;;
6173;SDS011;3120;48.796;9.796;2023-07-20T18:27:42;3.60;;;0.88;;
6173;SDS011;3120;48.796;9.796;2023-07-20T18:30:09;2.75;;;1.05;;
6173;SDS011;3120;48.796;9.796;2023-07-20T18:32:34;4.50;;;0.80;;
6173;SDS011;3120;48.796;9.796;2023-07-20T18:35:00;4.70;;;0.68;;
6173;SDS011;3120;48.796;9.796;2023-07-20T18:37:27;2.53;;;0.73;;
6173;SDS011;3120;48.796;9.796;2023-07-20T18:39:53;5.70;;;0.57;;
6173;SDS011;3120;48.796;9.796;2023-07-20T18:42:19;3.05;;;0.70;;
6173;SDS011;3120;48.796;9.796;2023-07-20T18:44:45;6.07;;;0.80;;
6173;SDS011;3120;48.796;9.796;2023-07-20T18:47:10;2.75;;;0.80;;
6173;SDS011;3120;48.796;9.796;2023-07-20T18:49:36;9.85;;;4.32;;
6173;SDS011;3120;48.796;9.796;2023-07-20T18:52:03;5.35;;;2.72;;
6173;SDS011;3120;48.796;9.796;2023-07-20T18:54:30;6.03;;;2.53;;
6173;SDS011;3120;48.796;9.796;2023-07-20T18:56:55;3.55;;;2.22;;
6173;SDS011;3120;48.796;9.796;2023-07-20T18:59:21;3.83;;;1.98;;
6173;SDS011;3120;48.796;9.796;2023-07-20T19:01:47;6.50;;;2.30;;
6173;SDS011;3120;48.796;9.796;2023-07-20T19:04:13;4.40;;;2.30;;
6173;SDS011;3120;48.796;9.796;2023-07-20T19:06:38;2.50;;;1.50;;
6173;SDS011;3120;48.796;9.796;2023-07-20T19:09:04;3.17;;;1.80;;
6173;SDS011;3120;48.796;9.796;2023-07-20T19:11:31;4.03;;;1.25;;
6173;SDS011;3120;48.796;9.796;2023-07-20T19:13:57;1.50;;;0.98;;
6173;SDS011;3120;48.796;9.796;2023-07-20T19:16:44;4.43;;;1.60;;
6173;SDS011;3120;48.796;9.796;2023-07-20T19:19:19;5.28;;;1.45;;
6173;SDS011;3120;48.796;9.796;2023-07-20T19:21:45;7.18;;;1.10;;
6173;SDS011;3120;48.796;9.796;2023-07-20T19:24:13;4.72;;;1.40;;
6173;SDS011;3120;48.796;9.796;2023-07-20T19:26:42;1.58;;;1.13;;
6173;SDS011;3120;48.796;9.796;2023-07-20T19:29:13;2.72;;;1.33;;
6173;SDS011;3120;48.796;9.796;2023-07-20T19:31:40;7.75;;;1.40;;
6173;SDS011;3120;48.796;9.796;2023-07-20T19:34:06;3.55;;;1.30;;
6173;SDS011;3120;48.796;9.796;2023-07-20T19:36:37;4.38;;;1.38;;
6173;SDS011;3120;48.796;9.796;2023-07-20T19:39:03;3.85;;;1.40;;
6173;SDS011;3120;48.796;9.796;2023-07-20T19:41:29;5.30;;;1.40;;
6173;SDS011;3120;48.796;9.796;2023-07-20T19:43:57;3.90;;;1.25;;
6173;SDS011;3120;48.796;9.796;2023-07-20T19:46:23;4.50;;;1.20;;
6173;SDS011;3120;48.796;9.796;2023-07-20T19:48:48;10.73;;;1.90;;
6173;SDS011;3120;48.796;9.796;2023-07-20T19:51:15;7.85;;;1.70;;
6173;SDS011;3120;48.796;9.796;2023-07-20T19:53:41;6.88;;;1.45;;
6173;SDS011;3120;48.796;9.796;2023-07-20T19:56:06;7.55;;;1.40;;
6173;SDS011;3120;48.796;9.796;2023-07-20T19:58:33;2.80;;;1.23;;
6173;SDS011;3120;48.796;9.796;2023-07-20T20:00:59;3.05;;;1.60;;
6173;SDS011;3120;48.796;9.796;2023-07-20T20:03:25;2.67;;;1.48;;
6173;SDS011;3120;48.796;9.796;2023-07-20T20:05:52;4.18;;;1.15;;
6173;SDS011;3120;48.796;9.796;2023-07-20T20:08:18;5.00;;;1.45;;
6173;SDS011;3120;48.796;9.796;2023-07-20T20:10:45;4.60;;;1.50;;
6173;SDS011;3120;48.796;9.796;2023-07-20T20:13:11;4.63;;;1.45;;
6173;SDS011;3120;48.796;9.796;2023-07-20T20:15:40;1.83;;;1.48;;
6173;SDS011;3120;48.796;9.796;2023-07-20T20:18:07;11.27;;;1.38;;
6173;SDS011;3120;48.796;9.796;2023-07-20T20:33:29;3.22;;;1.40;;
6173;SDS011;3120;48.796;9.796;2023-07-20T20:35:59;2.83;;;1.50;;
6173;SDS011;3120;48.796;9.796;2023-07-20T20:38:28;3.22;;;1.48;;
6173;SDS011;3120;48.796;9.796;2023-07-20T20:41:05;5.82;;;1.60;;
6173;SDS011;3120;48.796;9.796;2023-07-20T20:43:43;2.90;;;1.45;;
6173;SDS011;3120;48.796;9.796;2023-07-20T20:46:15;3.88;;;1.27;;
6173;SDS011;3120;48.796;9.796;2023-07-20T20:49:03;2.78;;;1.67;;
6173;SDS011;3120;48.796;9.796;2023-07-20T20:51:36;5.50;;;2.00;;
6173;SDS011;3120;48.796;9.796;2023-07-20T20:54:12;3.83;;;1.10;;
6173;SDS011;3120;48.796;9.796;2023-07-20T20:56:49;2.95;;;1.60;;
6173;SDS011;3120;48.796;9.796;2023-07-20T20:59:16;3.95;;;1.63;;
6173;SDS011;3120;48.796;9.796;2023-07-20T21:01:45;4.60;;;1.40;;
6173;SDS011;3120;48.796;9.796;2023-07-20T21:04:14;10.45;;;1.20;;
6173;SDS011;3120;48.796;9.796;2023-07-20T21:06:42;5.45;;;1.27;;
6173;SDS011;3120;48.796;9.796;2023-07-20T21:09:08;3.95;;;1.50;;
6173;SDS011;3120;48.796;9.796;2023-07-20T21:11:34;3.15;;;1.38;;
6173;SDS011;3120;48.796;9.796;2023-07-20T21:14:03;7.43;;;1.15;;
6173;SDS011;3120;48.796;9.796;2023-07-20T21:16:46;4.18;;;1.80;;
6173;SDS011;3120;48.796;9.796;2023-07-20T21:19:14;2.80;;;1.17;;
6173;SDS011;3120;48.796;9.796;2023-07-20T21:21:41;2.97;;;1.63;;
6173;SDS011;3120;48.796;9.796;2023-07-20T21:24:12;7.63;;;1.73;;
6173;SDS011;3120;48.796;9.796;2023-07-20T21:26:43;6.50;;;1.60;;
6173;SDS011;3120;48.796;9.796;2023-07-20T21:29:09;3.70;;;1.20;;
6173;SDS011;3120;48.796;9.796;2023-07-20T21:31:37;2.22;;;1.17;;
6173;SDS011;3120;48.796;9.796;2023-07-20T21:34:03;3.63;;;1.25;;
6173;SDS011;3120;48.796;9.796;2023-07-20T21:36:29;4.22;;;1.42;;
6173;SDS011;3120;48.796;9.796;2023-07-20T21:38:55;3.60;;;1.48;;
6173;SDS011;3120;48.796;9.796;2023-07-20T21:41:24;5.10;;;1.45;;
6173;SDS011;3120;48.796;9.796;2023-07-20T21:43:57;5.53;;;1.20;;
6173;SDS011;3120;48.796;9.796;2023-07-20T21:46:23;6.47;;;1.30;;
6173;SDS011;3120;48.796;9.796;2023-07-20T21:48:49;4.57;;;1.50;;
6173;SDS011;3120;48.796;9.796;2023-07-20T21:51:15;3.50;;;1.58;;
6173;SDS011;3120;48.796;9.796;2023-07-20T21:53:44;2.53;;;1.40;;
6173;SDS011;3120;48.796;9.796;2023-07-20T21:56:12;3.78;;;1.35;;
6173;SDS011;3120;48.796;9.796;2023-07-20T21:58:38;1.75;;;1.40;;
6173;SDS011;3120;48.796;9.796;2023-07-20T22:01:07;2.75;;;1.52;;
6173;SDS011;3120;48.796;9.796;2023-07-20T22:03:32;6.32;;;1.42;;
6173;SDS011;3120;48.796;9.796;2023-07-20T22:06:01;3.30;;;1.27;;
6173;SDS011;3120;48.796;9.796;2023-07-20T22:08:27;5.18;;;1.48;;
6173;SDS011;3120;48.796;9.796;2023-07-20T22:10:53;5.05;;;2.00;;
6173;SDS011;3120;48.796;9.796;2023-07-20T22:13:19;3.50;;;1.33;;
6173;SDS011;3120;48.796;9.796;2023-07-20T22:15:45;5.88;;;1.50;;
6173;SDS011;3120;48.796;9.796;2023-07-20T22:18:11;9.45;;;1.73;;
6173;SDS011;3120;48.796;9.796;2023-07-20T22:20:37;3.58;;;1.20;;
6173;SDS011;3120;48.796;9.796;2023-07-20T22:23:03;3.75;;;1.40;;
6173;SDS011;3120;48.796;9.796;2023-07-20T22:25:29;2.78;;;1.58;;
6173;SDS011;3120;48.796;9.796;2023-07-20T22:27:55;6.43;;;1.50;;
6173;SDS011;3120;48.796;9.796;2023-07-20T22:30:21;4.10;;;1.40;;
6173;SDS011;3120;48.796;9.796;2023-07-20T22:32:46;2.45;;;1.55;;
6173;SDS011;3120;48.796;9.796;2023-07-20T22:35:12;4.32;;;1.45;;
6173;SDS011;3120;48.796;9.796;2023-07-20T22:37:39;5.38;;;1.98;;
6173;SDS011;3120;48.796;9.796;2023-07-20T22:42:40;5.68;;;1.40;;
6173;SDS011;3120;48.796;9.796;2023-07-20T22:45:07;2.90;;;1.48;;
6173;SDS011;3120;48.796;9.796;2023-07-20T22:47:33;1.98;;;1.58;;
6173;SDS011;3120;48.796;9.796;2023-07-20T22:50:00;3.72;;;1.70;;
6173;SDS011;3120;48.796;9.796;2023-07-20T22:52:27;3.72;;;1.52;;
6173;SDS011;3120;48.796;9.796;2023-07-20T22:54:53;8.30;;;1.42;;
6173;SDS011;3120;48.796;9.796;2023-07-20T22:57:19;4.45;;;1.55;;
6173;SDS011;3120;48.796;9.796;2023-07-20T22:59:44;2.80;;;1.80;;
6173;SDS011;3120;48.796;9.796;2023-07-20T23:02:11;6.65;;;1.75;;
6173;SDS011;3120;48.796;9.796;2023-07-20T23:04:37;4.32;;;1.60;;
6173;SDS011;3120;48.796;9.796;2023-07-20T23:07:02;6.47;;;1.58;;
6173;SDS011;3120;48.796;9.796;2023-07-20T23:09:28;2.55;;;1.55;;
6173;SDS011;3120;48.796;9.796;2023-07-20T23:11:54;7.07;;;1.77;;
6173;SDS011;3120;48.796;9.796;2023-07-20T23:14:20;5.43;;;2.00;;
6173;SDS011;3120;48.796;9.796;2023-07-20T23:16:46;6.95;;;1.92;;
6173;SDS011;3120;48.796;9.796;2023-07-20T23:19:12;6.20;;;1.80;;
6173;SDS011;3120;48.796;9.796;2023-07-20T23:21:37;3.83;;;1.83;;
6173;SDS011;3120;48.796;9.796;2023-07-20T23:24:03;4.03;;;2.03;;
6173;SDS011;3120;48.796;9.796;2023-07-20T23:26:29;3.90;;;2.03;;
6173;SDS011;3120;48.796;9.796;2023-07-20T23:28:55;6.38;;;2.00;;
6173;SDS011;3120;48.796;9.796;2023-07-20T23:31:20;3.95;;;1.85;;
6173;SDS011;3120;48.796;9.796;2023-07-20T23:33:47;3.40;;;2.00;;
6173;SDS011;3120;48.796;9.796;2023-07-20T23:36:14;8.10;;;1.85;;
6173;SDS011;3120;48.796;9.796;2023-07-20T23:38:40;4.53;;;1.92;;
6173;SDS011;3120;48.796;9.796;2023-07-20T23:41:06;3.30;;;1.60;;
6173;SDS011;3120;48.796;9.796;2023-07-20T23:43:36;4.60;;;1.90;;
6173;SDS011;3120;48.796;9.796;2023-07-20T23:46:03;9.55;;;2.10;;
6173;SDS011;3120;48.796;9.796;2023-07-20T23:48:34;5.15;;;2.10;;
6173;SDS011;3120;48.796;9.796;2023-07-20T23:51:12;5.25;;;1.98;;
6173;SDS011;3120;48.796;9.796;2023-07-20T23:53:44;6.07;;;1.90;;
6173;SDS011;3120;48.796;9.796;2023-07-20T23:56:11;3.10;;;2.00;;
6173;SDS011;3120;48.796;9.796;2023-07-20T23:58:39;5.65;;;2.05;;
